Home > Products > Valid Products > TAF

000
FTUS43 KGRB 012300
TAFGRB
TAF
KGRB 012334Z 0200/0224 26014G21KT P6SM BKN035
     FM020100 27012KT P6SM SKC
     FM020400 27009KT P6SM BKN040
     FM020900 29005KT P6SM SKC
     FM022100 21005KT P6SM SCT200=



000
FTUS43 KGRB 012300
TAFGRB
TAF
KGRB 012334Z 0200/0224 26014G21KT P6SM BKN035
     FM020100 27012KT P6SM SKC
     FM020400 27009KT P6SM BKN040
     FM020900 29005KT P6SM SKC
     FM022100 21005KT P6SM SCT200=



000
FTUS43 KGRB 012300
TAFGRB
TAF
KGRB 012334Z 0200/0224 26014G21KT P6SM BKN035
     FM020100 27012KT P6SM SKC
     FM020400 27009KT P6SM BKN040
     FM020900 29005KT P6SM SKC
     FM022100 21005KT P6SM SCT200=



000
FTUS43 KGRB 012300
TAFGRB
TAF
KGRB 012334Z 0200/0224 26014G21KT P6SM BKN035
     FM020100 27012KT P6SM SKC
     FM020400 27009KT P6SM BKN040
     FM020900 29005KT P6SM SKC
     FM022100 21005KT P6SM SCT200=



000
FTUS43 KGRB 011900 AAA
TAFGRB
TAF AMD
KGRB 011935Z 0120/0218 24009G17KT P6SM SCT025 BKN150
      TEMPO 0122/0124 -SN BKN025
     FM020000 25010G16KT P6SM SCT025
     FM020500 28007KT P6SM SKC=



000
FTUS43 KGRB 011900 AAA
TAFGRB
TAF AMD
KGRB 011935Z 0120/0218 24009G17KT P6SM SCT025 BKN150
      TEMPO 0122/0124 -SN BKN025
     FM020000 25010G16KT P6SM SCT025
     FM020500 28007KT P6SM SKC=



000
FTUS43 KGRB 011900 AAA
TAFGRB
TAF AMD
KGRB 011935Z 0120/0218 24009G17KT P6SM SCT025 BKN150
      TEMPO 0122/0124 -SN BKN025
     FM020000 25010G16KT P6SM SCT025
     FM020500 28007KT P6SM SKC=



000
FTUS43 KGRB 011700
TAFGRB
TAF
KGRB 011732Z 0118/0218 24009KT P6SM FEW020 BKN200
     FM012000 24009KT P6SM -SN BKN025
     FM020000 25010G15KT P6SM SCT025
     FM020500 28007KT P6SM SKC=



000
FTUS43 KGRB 011700
TAFGRB
TAF
KGRB 011732Z 0118/0218 24009KT P6SM FEW020 BKN200
     FM012000 24009KT P6SM -SN BKN025
     FM020000 25010G15KT P6SM SCT025
     FM020500 28007KT P6SM SKC=



000
FTUS43 KGRB 011700
TAFGRB
TAF
KGRB 011732Z 0118/0218 24009KT P6SM FEW020 BKN200
     FM012000 24009KT P6SM -SN BKN025
     FM020000 25010G15KT P6SM SCT025
     FM020500 28007KT P6SM SKC=



000
FTUS43 KGRB 011700
TAFGRB
TAF
KGRB 011732Z 0118/0218 24009KT P6SM FEW020 BKN200
     FM012000 24009KT P6SM -SN BKN025
     FM020000 25010G15KT P6SM SCT025
     FM020500 28007KT P6SM SKC=



000
FTUS43 KGRB 011600 AAB
TAFGRB
TAF AMD
KGRB 011631Z 0117/0212 22010KT P6SM FEW025 BKN200
     FM011800 24009KT P6SM -SN BKN020
     FM020200 27012G20KT P6SM SCT030
     FM020900 28007KT P6SM SKC=



000
FTUS43 KGRB 011600 AAB
TAFGRB
TAF AMD
KGRB 011631Z 0117/0212 22010KT P6SM FEW025 BKN200
     FM011800 24009KT P6SM -SN BKN020
     FM020200 27012G20KT P6SM SCT030
     FM020900 28007KT P6SM SKC=



000
FTUS43 KGRB 011400 AAA
TAFGRB
TAF AMD
KGRB 011454Z 0115/0212 24010KT P6SM -SN BKN030
      TEMPO 0115/0117 SCT025 BKN200
     FM020200 27012G20KT P6SM SCT030
     FM020900 28007KT P6SM SKC=



000
FTUS43 KGRB 011400 AAA
TAFGRB
TAF AMD
KGRB 011454Z 0115/0212 24010KT P6SM -SN BKN030
      TEMPO 0115/0117 SCT025 BKN200
     FM020200 27012G20KT P6SM SCT030
     FM020900 28007KT P6SM SKC=



000
FTUS43 KGRB 011400 AAA
TAFGRB
TAF AMD
KGRB 011454Z 0115/0212 24010KT P6SM -SN BKN030
      TEMPO 0115/0117 SCT025 BKN200
     FM020200 27012G20KT P6SM SCT030
     FM020900 28007KT P6SM SKC=



000
FTUS43 KGRB 011400 AAA
TAFGRB
TAF AMD
KGRB 011454Z 0115/0212 24010KT P6SM -SN BKN030
      TEMPO 0115/0117 SCT025 BKN200
     FM020200 27012G20KT P6SM SCT030
     FM020900 28007KT P6SM SKC=



000
FTUS43 KGRB 011200 AAA
TAFGRB
TAF AMD
KGRB 011224Z 0112/0212 23010KT P6SM -SN BKN035
      TEMPO 0112/0116 BKN025
     FM020200 27012G20KT P6SM SCT030
     FM020900 28007KT P6SM SKC=



000
FTUS43 KGRB 011200 AAA
TAFGRB
TAF AMD
KGRB 011224Z 0112/0212 23010KT P6SM -SN BKN035
      TEMPO 0112/0116 BKN025
     FM020200 27012G20KT P6SM SCT030
     FM020900 28007KT P6SM SKC=



000
FTUS43 KGRB 011100
TAFGRB
TAF
KGRB 011130Z 0112/0212 23010KT P6SM -SN BKN035
     FM020200 27012G20KT P6SM SCT030
     FM020900 28007KT P6SM SKC=



000
FTUS43 KGRB 011000 AAA
TAFGRB
TAF AMD
KGRB 011035Z 0111/0206 21005KT P6SM -SN BKN035
     FM011500 23008KT P6SM SCT030 BKN120
     FM020300 27010KT P6SM SCT030=



000
FTUS43 KGRB 011000 AAA
TAFGRB
TAF AMD
KGRB 011035Z 0111/0206 21005KT P6SM -SN BKN035
     FM011500 23008KT P6SM SCT030 BKN120
     FM020300 27010KT P6SM SCT030=



000
FTUS43 KGRB 011000 AAA
TAFGRB
TAF AMD
KGRB 011035Z 0111/0206 21005KT P6SM -SN BKN035
     FM011500 23008KT P6SM SCT030 BKN120
     FM020300 27010KT P6SM SCT030=



000
FTUS43 KGRB 011000 AAA
TAFGRB
TAF AMD
KGRB 011035Z 0111/0206 21005KT P6SM -SN BKN035
     FM011500 23008KT P6SM SCT030 BKN120
     FM020300 27010KT P6SM SCT030=



000
FTUS43 KGRB 010500
TAFGRB
TAF
KGRB 010520Z 0106/0206 20009KT P6SM BKN080
     FM011000 21005KT P6SM -SN BKN030 OVC050
     FM011500 23008KT P6SM SCT030 BKN120
     FM020300 27010KT P6SM SCT030=



000
FTUS43 KGRB 010500
TAFGRB
TAF
KGRB 010520Z 0106/0206 20009KT P6SM BKN080
     FM011000 21005KT P6SM -SN BKN030 OVC050
     FM011500 23008KT P6SM SCT030 BKN120
     FM020300 27010KT P6SM SCT030=



000
FTUS43 KGRB 010500
TAFGRB
TAF
KGRB 010520Z 0106/0206 20009KT P6SM BKN080
     FM011000 21005KT P6SM -SN BKN030 OVC050
     FM011500 23008KT P6SM SCT030 BKN120
     FM020300 27010KT P6SM SCT030=



000
FTUS43 KGRB 282300
TAFGRB
TAF
KGRB 282338Z 0100/0124 20009KT P6SM SCT250
     FM010400 21005KT P6SM BKN070
     FM010800 21005KT P6SM -SN BKN030 OVC050
     FM011500 23008G15KT P6SM SCT030 BKN120
     FM012100 25009KT P6SM BKN200=



000
FTUS43 KGRB 282300
TAFGRB
TAF
KGRB 282338Z 0100/0124 20009KT P6SM SCT250
     FM010400 21005KT P6SM BKN070
     FM010800 21005KT P6SM -SN BKN030 OVC050
     FM011500 23008G15KT P6SM SCT030 BKN120
     FM012100 25009KT P6SM BKN200=



000
FTUS43 KGRB 282300
TAFGRB
TAF
KGRB 282338Z 0100/0124 20009KT P6SM SCT250
     FM010400 21005KT P6SM BKN070
     FM010800 21005KT P6SM -SN BKN030 OVC050
     FM011500 23008G15KT P6SM SCT030 BKN120
     FM012100 25009KT P6SM BKN200=



000
FTUS43 KGRB 282300
TAFGRB
TAF
KGRB 282338Z 0100/0124 20009KT P6SM SCT250
     FM010400 21005KT P6SM BKN070
     FM010800 21005KT P6SM -SN BKN030 OVC050
     FM011500 23008G15KT P6SM SCT030 BKN120
     FM012100 25009KT P6SM BKN200=



000
FTUS43 KGRB 281700
TAFGRB
TAF
KGRB 281734Z 2818/0118 21009KT P6SM SCT250
     FM010400 21005KT P6SM BKN070
     FM010800 21005KT P6SM -SN SCT020 BKN030 OVC050
     FM011500 23008G15KT P6SM SCT015 SCT030 BKN150=



000
FTUS43 KGRB 281700
TAFGRB
TAF
KGRB 281734Z 2818/0118 21009KT P6SM SCT250
     FM010400 21005KT P6SM BKN070
     FM010800 21005KT P6SM -SN SCT020 BKN030 OVC050
     FM011500 23008G15KT P6SM SCT015 SCT030 BKN150=



000
FTUS43 KGRB 281700
TAFGRB
TAF
KGRB 281734Z 2818/0118 21009KT P6SM SCT250
     FM010400 21005KT P6SM BKN070
     FM010800 21005KT P6SM -SN SCT020 BKN030 OVC050
     FM011500 23008G15KT P6SM SCT015 SCT030 BKN150=



000
FTUS43 KGRB 281700
TAFGRB
TAF
KGRB 281734Z 2818/0118 21009KT P6SM SCT250
     FM010400 21005KT P6SM BKN070
     FM010800 21005KT P6SM -SN SCT020 BKN030 OVC050
     FM011500 23008G15KT P6SM SCT015 SCT030 BKN150=



000
FTUS43 KGRB 281100
TAFGRB
TAF
KGRB 281122Z 2812/0112 21009KT P6SM SCT250
     FM010400 20005KT P6SM BKN070
     FM011000 21005KT P6SM -SN BKN035 OVC050=



000
FTUS43 KGRB 281100
TAFGRB
TAF
KGRB 281122Z 2812/0112 21009KT P6SM SCT250
     FM010400 20005KT P6SM BKN070
     FM011000 21005KT P6SM -SN BKN035 OVC050=



000
FTUS43 KGRB 280500
TAFGRB
TAF
KGRB 280520Z 2806/0106 23005KT P6SM SKC
     FM281700 21008G13KT P6SM SCT250
     FM010000 18005KT P6SM BKN250
     FM010500 18004KT P6SM BKN080=



000
FTUS43 KGRB 280500
TAFGRB
TAF
KGRB 280520Z 2806/0106 23005KT P6SM SKC
     FM281700 21008G13KT P6SM SCT250
     FM010000 18005KT P6SM BKN250
     FM010500 18004KT P6SM BKN080=



000
FTUS43 KGRB 280500
TAFGRB
TAF
KGRB 280520Z 2806/0106 23005KT P6SM SKC
     FM281700 21008G13KT P6SM SCT250
     FM010000 18005KT P6SM BKN250
     FM010500 18004KT P6SM BKN080=



000
FTUS43 KGRB 280500
TAFGRB
TAF
KGRB 280520Z 2806/0106 23005KT P6SM SKC
     FM281700 21008G13KT P6SM SCT250
     FM010000 18005KT P6SM BKN250
     FM010500 18004KT P6SM BKN080=



000
FTUS43 KGRB 272300
TAFGRB
TAF
KGRB 272335Z 2800/2824 22005KT P6SM SKC
     FM281700 21008G13KT P6SM SCT250=



000
FTUS43 KGRB 272300
TAFGRB
TAF
KGRB 272335Z 2800/2824 22005KT P6SM SKC
     FM281700 21008G13KT P6SM SCT250=



000
FTUS43 KGRB 271700
TAFGRB
TAF
KGRB 271734Z 2718/2818 25009G14KT P6SM SKC
     FM280000 23004KT P6SM SCT200=



000
FTUS43 KGRB 271700
TAFGRB
TAF
KGRB 271734Z 2718/2818 25009G14KT P6SM SKC
     FM280000 23004KT P6SM SCT200=



000
FTUS43 KGRB 271100
TAFGRB
TAF
KGRB 271123Z 2712/2812 25008KT P6SM SKC=



000
FTUS43 KGRB 271100
TAFGRB
TAF
KGRB 271123Z 2712/2812 25008KT P6SM SKC=



000
FTUS43 KGRB 270500
TAFGRB
TAF
KGRB 270520Z 2706/2806 29004KT P6SM SKC
     FM271500 25009KT P6SM SKC=



000
FTUS43 KGRB 270500
TAFGRB
TAF
KGRB 270520Z 2706/2806 29004KT P6SM SKC
     FM271500 25009KT P6SM SKC=



000
FTUS43 KGRB 270500
TAFGRB
TAF
KGRB 270520Z 2706/2806 29004KT P6SM SKC
     FM271500 25009KT P6SM SKC=



000
FTUS43 KGRB 270500
TAFGRB
TAF
KGRB 270520Z 2706/2806 29004KT P6SM SKC
     FM271500 25009KT P6SM SKC=



    US Dept of Commerce
    National Oceanic and Atmospheric Administration
    National Weather Service
    1325 East West Highway
    Silver Spring, MD 20910
    Page Author: NWS Internet Services Team
Disclaimer
Information Quality
Credits
Glossary
Privacy Policy
Freedom of Information Act (FOIA)
About Us
Career Opportunities